createdAt,value
2023-03-12T00:01:43.356Z,1.30
2023-03-12T00:04:10.211Z,0.30
2023-03-12T00:06:37.650Z,0.20
2023-03-12T00:09:04.763Z,0.20
2023-03-12T00:11:31.525Z,0.20
2023-03-12T00:14:00.233Z,0.20
2023-03-12T00:16:27.884Z,0.20
2023-03-12T00:18:56.022Z,0.30
2023-03-12T00:21:23.360Z,0.50
2023-03-12T00:23:51.324Z,0.20
2023-03-12T00:26:20.631Z,0.40
2023-03-12T00:28:48.878Z,0.20
2023-03-12T00:31:27.909Z,0.20
2023-03-12T00:33:56.195Z,0.20
2023-03-12T00:36:37.501Z,0.20
2023-03-12T00:39:07.864Z,0.30
2023-03-12T00:41:42.167Z,1.10
2023-03-12T00:44:58.539Z,1.30
2023-03-12T00:47:59.877Z,0.60
2023-03-12T00:50:55.313Z,0.30
2023-03-12T00:53:22.398Z,0.40
2023-03-12T00:55:50.606Z,1.70
2023-03-12T00:58:17.811Z,1.30
2023-03-12T01:00:47.156Z,0.30
2023-03-12T01:03:16.713Z,0.60
2023-03-12T01:05:43.903Z,0.20
2023-03-12T01:08:11.156Z,0.70
2023-03-12T01:10:43.292Z,0.90
2023-03-12T01:13:10.279Z,0.50
2023-03-12T01:15:38.592Z,0.40
2023-03-12T01:18:08.026Z,0.10
2023-03-12T01:20:36.491Z,0.10
2023-03-12T01:23:03.563Z,0.60
2023-03-12T01:25:31.466Z,0.10
2023-03-12T01:27:58.647Z,0.50
2023-03-12T01:30:28.288Z,0.70
2023-03-12T01:32:57.638Z,0.70
2023-03-12T01:35:30.883Z,0.50
2023-03-12T01:38:01.196Z,0.00
2023-03-12T01:40:32.896Z,0.00
2023-03-12T01:43:00.255Z,0.10
2023-03-12T01:46:06.891Z,0.00
2023-03-12T01:48:40.595Z,0.00
2023-03-12T01:51:10.804Z,0.70
2023-03-12T01:53:38.950Z,1.20
2023-03-12T01:56:06.928Z,1.00
2023-03-12T01:58:36.031Z,-0.10
2023-03-12T02:01:04.210Z,-0.20
2023-03-12T02:03:33.525Z,-0.20
2023-03-12T02:06:08.776Z,0.10
2023-03-12T02:08:42.188Z,-0.20
2023-03-12T02:11:10.455Z,-0.10
2023-03-12T02:13:37.602Z,-0.20
2023-03-12T02:16:04.709Z,-0.30
2023-03-12T02:18:31.694Z,-0.30
2023-03-12T02:21:21.964Z,-0.30
2023-03-12T02:23:57.478Z,-0.30
2023-03-12T02:26:25.654Z,-0.20
2023-03-12T02:28:54.596Z,-0.40
2023-03-12T02:31:24.881Z,-0.20
2023-03-12T02:33:53.172Z,-0.20
2023-03-12T02:36:20.607Z,-0.10
2023-03-12T02:38:51.178Z,-0.40
2023-03-12T02:41:22.614Z,-0.30
2023-03-12T02:44:33.684Z,-0.20
2023-03-12T02:47:01.854Z,-0.30
2023-03-12T02:49:31.444Z,-0.40
2023-03-12T02:51:58.331Z,-0.30
2023-03-12T02:54:26.901Z,-0.30
2023-03-12T02:56:53.839Z,-0.30
2023-03-12T02:59:22.085Z,-0.30
2023-03-12T03:01:54.581Z,-0.20
2023-03-12T03:04:21.505Z,0.60
2023-03-12T03:06:48.674Z,0.70
2023-03-12T03:09:15.546Z,-0.20
2023-03-12T03:11:42.436Z,-0.20
2023-03-12T03:14:10.220Z,0.00
2023-03-12T03:16:37.583Z,-0.30
2023-03-12T03:19:05.140Z,0.00
2023-03-12T03:21:32.673Z,-0.30
2023-03-12T03:24:01.187Z,-0.30
2023-03-12T03:26:27.998Z,0.20
2023-03-12T03:28:55.071Z,-0.20
2023-03-12T03:31:22.210Z,-0.20
2023-03-12T03:33:49.576Z,-0.20
2023-03-12T03:36:16.729Z,-0.20
2023-03-12T03:38:49.114Z,0.00
2023-03-12T03:41:17.667Z,-0.30
2023-03-12T03:43:46.364Z,-0.20
2023-03-12T03:46:14.090Z,-0.20
2023-03-12T03:48:42.063Z,-0.30
2023-03-12T03:51:10.952Z,0.10
2023-03-12T03:53:39.070Z,-0.30
2023-03-12T03:56:08.213Z,-0.20
2023-03-12T03:58:35.007Z,-0.20
2023-03-12T04:01:04.677Z,0.10
2023-03-12T04:03:31.794Z,-0.30
2023-03-12T04:06:04.127Z,-0.30
2023-03-12T04:08:32.932Z,-0.30
2023-03-12T04:10:59.684Z,-0.30
2023-03-12T04:13:26.472Z,-0.40
2023-03-12T04:15:54.238Z,-0.40
2023-03-12T04:18:21.089Z,-0.20
2023-03-12T04:20:48.235Z,-0.30
2023-03-12T04:23:16.422Z,-0.50
2023-03-12T04:25:43.227Z,-0.40
2023-03-12T04:28:10.119Z,0.20
2023-03-12T04:30:38.293Z,-0.30
2023-03-12T04:33:06.874Z,-0.50
2023-03-12T04:35:33.803Z,-0.50
2023-03-12T04:38:04.154Z,-0.50
2023-03-12T04:40:31.331Z,-0.40
2023-03-12T04:42:58.240Z,-0.50
2023-03-12T04:45:24.961Z,-0.60
2023-03-12T04:47:51.712Z,-0.50
2023-03-12T04:50:19.899Z,-0.70
2023-03-12T04:52:46.696Z,-0.20
2023-03-12T04:55:13.517Z,-0.70
2023-03-12T04:57:40.293Z,-0.70
2023-03-12T05:00:13.367Z,-0.80
2023-03-12T05:02:42.077Z,-0.60
2023-03-12T05:05:10.707Z,-0.70
2023-03-12T05:07:37.456Z,-0.60
2023-03-12T05:10:04.598Z,-0.20
2023-03-12T05:12:31.325Z,-0.60
2023-03-12T05:14:58.197Z,-0.70
2023-03-12T05:17:24.924Z,-0.70
2023-03-12T05:19:51.837Z,-0.60
2023-03-12T05:22:19.154Z,-0.60
2023-03-12T05:24:45.921Z,-0.60
2023-03-12T05:27:13.022Z,-0.60
2023-03-12T05:29:41.484Z,-0.60
2023-03-12T05:32:09.111Z,-0.30
2023-03-12T05:34:35.922Z,-0.50
2023-03-12T05:37:02.746Z,-0.60
2023-03-12T05:39:29.538Z,-0.60
2023-03-12T05:41:57.289Z,-0.60
2023-03-12T05:44:25.185Z,-0.50
2023-03-12T05:46:53.537Z,-0.50
2023-03-12T05:49:21.259Z,-0.50
2023-03-12T05:51:49.087Z,-0.40
2023-03-12T05:54:17.081Z,-0.40
2023-03-12T05:56:43.829Z,-0.40
2023-03-12T05:59:10.706Z,-0.30
2023-03-12T06:01:37.898Z,-0.30
2023-03-12T06:04:04.806Z,-0.30
2023-03-12T06:06:35.765Z,-0.20
2023-03-12T06:09:04.041Z,-0.30
2023-03-12T06:11:32.319Z,-0.10
2023-03-12T06:14:02.127Z,-0.20
2023-03-12T06:16:29.976Z,-0.10
2023-03-12T06:19:02.122Z,-0.10
2023-03-12T06:21:34.647Z,-0.10
2023-03-12T06:24:01.658Z,-0.10
2023-03-12T06:26:28.652Z,-0.10
2023-03-12T06:28:57.384Z,0.00
2023-03-12T06:31:24.677Z,0.10
2023-03-12T06:33:53.730Z,0.10
2023-03-12T06:36:23.072Z,0.40
2023-03-12T06:38:50.323Z,0.20
2023-03-12T06:41:19.584Z,0.20
2023-03-12T06:43:49.811Z,0.20
2023-03-12T06:46:21.775Z,0.40
2023-03-12T06:48:48.874Z,0.40
2023-03-12T06:51:17.178Z,0.30
2023-03-12T06:53:45.579Z,0.50
2023-03-12T06:56:13.434Z,0.40
2023-03-12T06:58:41.445Z,0.40
2023-03-12T07:01:08.467Z,0.60
2023-03-12T07:03:36.370Z,0.40
2023-03-12T07:06:03.607Z,0.50
2023-03-12T07:08:31.285Z,0.60
2023-03-12T07:11:01.740Z,0.40
2023-03-12T07:13:29.316Z,0.50
2023-03-12T07:15:56.396Z,0.80
2023-03-12T07:18:23.406Z,0.50
2023-03-12T07:20:50.277Z,0.60
2023-03-12T07:23:17.077Z,0.60
2023-03-12T07:25:44.393Z,0.80
2023-03-12T07:28:12.195Z,0.70
2023-03-12T07:30:39.275Z,0.80
2023-03-12T07:33:11.619Z,0.90
2023-03-12T07:35:39.834Z,0.80
2023-03-12T07:38:07.670Z,0.90
2023-03-12T07:40:35.667Z,1.10
2023-03-12T07:43:03.618Z,0.80
2023-03-12T07:45:31.779Z,0.90
2023-03-12T07:47:58.676Z,0.80
2023-03-12T07:50:25.506Z,0.70
2023-03-12T07:52:52.753Z,0.70
2023-03-12T07:55:19.765Z,0.70
2023-03-12T07:57:48.507Z,0.80
2023-03-12T08:00:17.205Z,0.70
2023-03-12T08:02:44.419Z,0.70
2023-03-12T08:05:11.486Z,0.90
2023-03-12T08:07:38.266Z,0.80
2023-03-12T08:10:07.696Z,0.80
2023-03-12T08:12:34.948Z,0.80
2023-03-12T08:15:01.696Z,0.90
2023-03-12T08:17:28.388Z,1.00
2023-03-12T08:19:55.146Z,0.90
2023-03-12T08:22:21.878Z,1.00
2023-03-12T08:24:48.937Z,1.20
2023-03-12T08:27:15.710Z,1.00
2023-03-12T08:29:42.741Z,1.20
2023-03-12T08:32:14.257Z,1.00
2023-03-12T08:34:41.024Z,1.10
2023-03-12T08:37:07.864Z,1.10
2023-03-12T08:39:34.722Z,1.20
2023-03-12T08:42:16.554Z,1.20
2023-03-12T08:45:33.261Z,1.10
2023-03-12T08:48:29.810Z,1.30
2023-03-12T08:51:17.592Z,1.20
2023-03-12T08:53:45.239Z,1.30
2023-03-12T08:56:12.030Z,2.60
2023-03-12T08:58:39.081Z,2.20
2023-03-12T09:01:14.573Z,1.60
2023-03-12T09:03:41.653Z,1.40
2023-03-12T09:06:14.773Z,1.70
2023-03-12T09:08:47.744Z,1.50
2023-03-12T09:11:15.260Z,1.40
2023-03-12T09:14:08.199Z,1.60
2023-03-12T09:16:29.833Z,1.80
2023-03-12T09:18:57.485Z,1.80
2023-03-12T09:21:24.362Z,1.80
2023-03-12T09:23:51.095Z,2.00
2023-03-12T09:26:17.798Z,2.50
2023-03-12T09:28:44.989Z,2.00
2023-03-12T09:31:12.470Z,2.00
2023-03-12T09:33:39.391Z,2.00
2023-03-12T09:36:06.607Z,2.50
2023-03-12T09:38:35.424Z,2.10
2023-03-12T09:41:05.352Z,2.20
2023-03-12T09:43:41.122Z,2.00
2023-03-12T09:46:24.002Z,2.10
2023-03-12T09:48:55.696Z,2.20
2023-03-12T09:51:30.743Z,2.30
2023-03-12T09:54:04.223Z,2.40
2023-03-12T09:56:32.369Z,2.50
2023-03-12T09:58:59.232Z,2.80
2023-03-12T10:01:40.708Z,2.50
2023-03-12T10:04:28.815Z,2.70
2023-03-12T10:07:11.458Z,2.70
2023-03-12T10:10:01.742Z,3.20
2023-03-12T10:12:51.280Z,2.70
2023-03-12T10:15:29.971Z,2.80
2023-03-12T10:18:38.591Z,2.90
2023-03-12T10:21:45.990Z,3.00
2023-03-12T10:24:31.634Z,2.90
2023-03-12T10:26:59.560Z,3.10
2023-03-12T10:29:35.421Z,3.20
2023-03-12T10:32:11.170Z,3.20
2023-03-12T10:34:57.654Z,3.30
2023-03-12T10:37:39.159Z,3.20
2023-03-12T10:40:06.611Z,3.00
2023-03-12T10:42:33.305Z,3.00
2023-03-12T10:45:09.267Z,2.90
2023-03-12T10:47:41.329Z,3.30
2023-03-12T10:50:22.437Z,3.00
2023-03-12T10:52:53.046Z,3.00
2023-03-12T10:55:21.869Z,3.00
2023-03-12T10:57:49.570Z,3.00
2023-03-12T11:00:24.201Z,3.10
2023-03-12T11:03:05.759Z,3.20
2023-03-12T11:05:45.687Z,3.10
2023-03-12T11:08:35.232Z,2.80
2023-03-12T11:11:06.297Z,3.40
2023-03-12T11:13:41.840Z,3.10
2023-03-12T11:16:17.685Z,3.50
2023-03-12T11:19:04.518Z,3.40
2023-03-12T11:21:33.641Z,3.80
2023-03-12T11:24:00.330Z,3.60
2023-03-12T11:27:02.404Z,3.80
2023-03-12T11:29:43.583Z,3.90
2023-03-12T11:32:25.721Z,3.90
2023-03-12T11:34:56.453Z,4.00
2023-03-12T11:38:00.804Z,4.00
2023-03-12T11:40:51.396Z,4.10
2023-03-12T11:43:43.771Z,4.40
2023-03-12T11:46:42.629Z,4.80
2023-03-12T11:49:22.612Z,4.30
2023-03-12T11:52:01.788Z,5.10
2023-03-12T12:02:54.929Z,4.80
2023-03-12T12:05:42.043Z,4.60
2023-03-12T12:08:18.180Z,4.60
2023-03-12T12:11:00.099Z,4.50
2023-03-12T12:13:35.932Z,4.50
2023-03-12T12:16:29.114Z,4.50
2023-03-12T12:19:37.166Z,4.60
2023-03-12T12:22:49.071Z,4.70
2023-03-12T12:25:59.565Z,4.90
2023-03-12T12:28:41.337Z,4.90
2023-03-12T12:31:22.196Z,4.90
2023-03-12T12:34:09.222Z,4.70
2023-03-12T12:36:36.744Z,5.80
2023-03-12T12:39:09.162Z,4.50
2023-03-12T12:41:51.748Z,4.40
2023-03-12T12:44:25.560Z,4.50
2023-03-12T12:47:06.140Z,4.80
2023-03-12T12:49:47.194Z,4.60
2023-03-12T12:52:21.086Z,4.60
2023-03-12T12:55:11.856Z,5.30
2023-03-12T12:57:38.877Z,4.60
2023-03-12T13:00:29.987Z,4.60
2023-03-12T13:02:57.973Z,4.90
2023-03-12T13:05:48.043Z,5.00
2023-03-12T13:08:36.959Z,4.80
2023-03-12T13:11:24.942Z,4.30
2023-03-12T13:14:13.529Z,4.20
2023-03-12T13:16:43.254Z,4.10
2023-03-12T13:19:18.729Z,4.40
2023-03-12T13:22:02.235Z,4.00
2023-03-12T13:24:42.955Z,4.10
2023-03-12T13:27:12.570Z,4.10
2023-03-12T13:29:42.217Z,4.20
2023-03-12T13:32:32.955Z,4.20
2023-03-12T13:34:59.851Z,4.20
2023-03-12T13:37:51.471Z,4.20
2023-03-12T13:40:30.461Z,4.30
2023-03-12T13:43:12.084Z,4.40
2023-03-12T13:45:48.515Z,4.50
2023-03-12T13:48:19.909Z,4.30
2023-03-12T13:50:57.144Z,4.70
2023-03-12T13:53:27.957Z,4.60
2023-03-12T13:56:14.260Z,4.60
2023-03-12T13:58:48.065Z,4.80
2023-03-12T14:01:19.816Z,4.80
2023-03-12T14:03:55.115Z,4.80
2023-03-12T14:06:24.572Z,4.90
2023-03-12T14:09:40.644Z,5.00
2023-03-12T14:12:20.493Z,4.70
2023-03-12T14:15:02.506Z,4.70
2023-03-12T14:17:32.617Z,4.70
2023-03-12T14:20:10.681Z,5.00
2023-03-12T14:22:41.474Z,4.50
2023-03-12T14:25:22.560Z,4.50
2023-03-12T14:27:49.710Z,4.80
2023-03-12T14:30:55.171Z,5.00
2023-03-12T14:33:23.594Z,4.60
2023-03-12T14:35:59.208Z,4.60
2023-03-12T14:38:44.096Z,5.10
2023-03-12T14:41:27.914Z,4.50
2023-03-12T14:44:03.122Z,5.20
2023-03-12T14:46:30.265Z,4.40
2023-03-12T14:48:57.400Z,4.90
2023-03-12T14:51:26.782Z,4.80
2023-03-12T14:53:54.377Z,4.60
2023-03-12T14:56:30.906Z,4.60
2023-03-12T14:59:00.714Z,4.50
2023-03-12T15:01:33.488Z,4.20
2023-03-12T15:04:06.731Z,4.40
2023-03-12T15:07:00.235Z,4.90
2023-03-12T15:09:29.737Z,3.90
2023-03-12T15:12:05.101Z,4.40
2023-03-12T15:14:37.936Z,4.20
2023-03-12T15:17:06.573Z,4.60
2023-03-12T15:19:39.572Z,4.30
2023-03-12T15:22:30.542Z,4.20
2023-03-12T15:25:20.713Z,4.10
2023-03-12T15:27:47.893Z,4.20
2023-03-12T15:30:26.386Z,4.20
2023-03-12T15:33:21.807Z,4.10
2023-03-12T15:36:20.616Z,4.70
2023-03-12T15:38:57.399Z,4.10
2023-03-12T15:41:47.905Z,4.40
